Time;durP1;ratioP1;P1;durP2;ratioP2;P2;SDS_P1;SDS_P2;PMS_P1;PMS_P2;Temp;Humidity;BMP_temperature;BMP_pressure;BME280_temperature;BME280_humidity;BME280_pressure;Samples;Min_cycle;Max_cycle;Signal;HPM_P1;HPM_P2
2021/07/27 05:54:46;;;;;;;23.48;17.05;;;18.40;99.90;;;;;;3602093;39;1331067;-89
2021/07/27 05:57:17;;;;;;;22.55;17.60;;;18.30;99.90;;;;;;3616572;23;20113;-75
2021/07/27 05:59:43;;;;;;;22.50;15.40;;;18.30;99.90;;;;;;3583387;40;20053;-78
2021/07/27 06:02:11;;;;;;;22.42;18.48;;;18.50;99.90;;;;;;3584044;40;20058;-77
2021/07/27 06:04:37;;;;;;;22.30;17.38;;;18.60;99.90;;;;;;3588938;39;20432;-76
2021/07/27 06:07:03;;;;;;;22.33;17.65;;;18.50;99.90;;;;;;3591996;39;20087;-75
2021/07/27 06:09:29;;;;;;;23.33;17.67;;;18.70;99.90;;;;;;3591794;39;20059;-75
2021/07/27 06:11:54;;;;;;;22.38;17.02;;;18.70;99.90;;;;;;3589788;40;20044;-77
2021/07/27 06:14:20;;;;;;;21.35;17.60;;;18.80;99.90;;;;;;3592184;40;20083;-78
2021/07/27 06:16:46;;;;;;;20.90;15.73;;;19.00;99.90;;;;;;3591851;40;20048;-78
2021/07/27 06:19:11;;;;;;;26.13;17.48;;;19.00;99.90;;;;;;3592660;40;20063;-78
2021/07/27 06:21:40;;;;;;;21.55;16.33;;;19.20;99.90;;;;;;3591979;39;20088;-78
2021/07/27 06:24:10;;;;;;;25.55;17.52;;;19.40;99.90;;;;;;3592193;40;20056;-78
2021/07/27 06:26:36;;;;;;;28.55;17.52;;;19.30;99.90;;;;;;3592938;40;20059;-78
2021/07/27 06:29:04;;;;;;;23.70;17.75;;;19.20;99.90;;;;;;3592336;40;20059;-79
2021/07/27 06:31:31;;;;;;;25.38;18.77;;;19.10;99.90;;;;;;3591951;39;20048;-79
2021/07/27 06:33:57;;;;;;;28.13;19.60;;;19.10;99.90;;;;;;3591761;40;20052;-79
2021/07/27 06:36:23;;;;;;;26.33;20.38;;;19.00;99.90;;;;;;3592286;40;20024;-79
2021/07/27 06:38:49;;;;;;;26.55;18.30;;;19.00;99.90;;;;;;3591977;39;20439;-79
2021/07/27 06:41:14;;;;;;;25.58;19.35;;;19.30;99.90;;;;;;3591084;40;20079;-79
2021/07/27 06:43:42;;;;;;;28.35;20.77;;;19.40;99.90;;;;;;3591767;39;20065;-78
2021/07/27 06:46:08;;;;;;;27.13;19.17;;;19.40;99.90;;;;;;3591956;39;20063;-78
2021/07/27 06:48:34;;;;;;;30.02;20.20;;;19.40;99.90;;;;;;3591478;40;20048;-78
2021/07/27 06:51:11;;;;;;;26.40;18.85;;;19.40;99.90;;;;;;3591503;39;20094;-79
2021/07/27 06:53:38;;;;;;;30.90;22.05;;;19.30;99.90;;;;;;3592178;40;20248;-79
2021/07/27 06:56:05;;;;;;;26.00;19.83;;;19.40;99.90;;;;;;3591574;40;20052;-78
2021/07/27 06:58:31;;;;;;;35.15;23.50;;;19.50;99.90;;;;;;3591329;39;20067;-78
2021/07/27 07:01:01;;;;;;;27.85;22.45;;;19.40;99.90;;;;;;3591575;40;20057;-79
2021/07/27 07:03:27;;;;;;;33.42;25.83;;;19.50;99.90;;;;;;3591882;40;20056;-77
2021/07/27 07:05:53;;;;;;;34.80;26.02;;;19.40;99.90;;;;;;3585267;40;20479;-76
2021/07/27 07:08:20;;;;;;;35.15;26.33;;;19.40;99.90;;;;;;3585019;40;20052;-77
2021/07/27 07:10:45;;;;;;;34.28;23.35;;;19.40;99.90;;;;;;3584152;40;20048;-73
2021/07/27 07:13:12;;;;;;;36.72;25.45;;;19.80;99.90;;;;;;3584965;40;20064;-74
2021/07/27 07:15:38;;;;;;;40.00;28.38;;;19.70;99.90;;;;;;3584204;40;20060;-72
2021/07/27 07:18:04;;;;;;;39.30;29.52;;;19.70;99.90;;;;;;3584473;40;20072;-73
2021/07/27 07:20:29;;;;;;;41.83;30.35;;;19.70;99.90;;;;;;3584919;40;20055;-73
2021/07/27 07:22:55;;;;;;;42.42;30.85;;;19.70;99.90;;;;;;3584528;40;20052;-75
2021/07/27 07:25:20;;;;;;;36.53;27.00;;;20.10;99.90;;;;;;3584666;40;20324;-74
2021/07/27 07:27:46;;;;;;;34.33;24.25;;;20.00;99.90;;;;;;3584166;40;20040;-74
2021/07/27 07:30:12;;;;;;;35.08;27.90;;;20.90;99.90;;;;;;3583943;40;20045;-73
2021/07/27 07:32:38;;;;;;;40.28;29.27;;;20.40;99.90;;;;;;3578195;40;20051;-72
2021/07/27 07:35:04;;;;;;;35.35;29.10;;;20.80;99.90;;;;;;3584397;40;20025;-72
2021/07/27 07:37:30;;;;;;;46.78;31.92;;;20.60;99.90;;;;;;3584216;40;20051;-72
2021/07/27 07:39:55;;;;;;;44.17;30.92;;;20.30;99.90;;;;;;3574922;40;20060;-72
2021/07/27 07:42:21;;;;;;;38.05;28.13;;;20.30;99.90;;;;;;3583502;40;20063;-73
2021/07/27 07:44:47;;;;;;;42.28;30.50;;;20.90;99.90;;;;;;3574981;40;20438;-73
2021/07/27 07:47:12;;;;;;;36.70;27.15;;;21.10;99.90;;;;;;3585064;40;20332;-72
2021/07/27 07:49:38;;;;;;;43.08;32.47;;;21.50;99.90;;;;;;3583627;40;20151;-72
2021/07/27 07:52:04;;;;;;;46.42;34.80;;;20.70;99.90;;;;;;3584770;40;20060;-73
2021/07/27 07:54:31;;;;;;;47.83;36.22;;;20.50;99.90;;;;;;3584550;40;20052;-73
2021/07/27 07:56:57;;;;;;;53.45;37.92;;;20.30;99.90;;;;;;3583616;40;20314;-73
2021/07/27 07:59:23;;;;;;;52.63;37.97;;;20.20;99.90;;;;;;3584633;40;20361;-74
2021/07/27 08:01:54;;;;;;;51.38;39.38;;;20.20;99.90;;;;;;3584359;40;20052;-73
2021/07/27 08:04:20;;;;;;;55.10;42.30;;;20.10;99.90;;;;;;3583689;40;20059;-76
2021/07/27 08:06:45;;;;;;;57.88;42.78;;;20.10;99.90;;;;;;3583421;40;20513;-77
2021/07/27 08:09:11;;;;;;;52.92;38.88;;;20.10;99.90;;;;;;3584392;40;20064;-75
2021/07/27 08:11:39;;;;;;;49.28;37.28;;;20.20;99.90;;;;;;3583938;40;20043;-75
2021/07/27 08:14:05;;;;;;;50.45;38.15;;;20.70;99.90;;;;;;3584047;40;20062;-77
2021/07/27 08:16:31;;;;;;;48.55;36.67;;;20.50;99.90;;;;;;3583858;40;20405;-76
2021/07/27 08:18:57;;;;;;;55.63;42.85;;;20.80;99.90;;;;;;3584479;40;20044;-74
2021/07/27 08:21:24;;;;;;;53.90;41.47;;;20.60;99.90;;;;;;3584134;40;20080;-74
2021/07/27 08:23:50;;;;;;;52.67;41.65;;;20.50;99.90;;;;;;3584165;40;20113;-74
2021/07/27 08:26:16;;;;;;;51.08;39.60;;;20.60;99.90;;;;;;3583623;40;20060;-73
2021/07/27 08:28:49;;;;;;;51.72;38.08;;;20.60;99.90;;;;;;3584150;40;20052;-73
2021/07/27 08:31:15;;;;;;;60.10;42.53;;;20.70;99.90;;;;;;3583783;40;20353;-73
2021/07/27 08:33:42;;;;;;;52.55;41.72;;;20.50;99.90;;;;;;3583454;40;20347;-74
2021/07/27 08:36:08;;;;;;;57.10;44.22;;;20.80;99.90;;;;;;3583721;40;20060;-73
2021/07/27 08:38:35;;;;;;;50.70;36.30;;;20.80;99.90;;;;;;3584500;40;20289;-73
2021/07/27 08:41:02;;;;;;;52.20;39.67;;;21.00;99.90;;;;;;3583413;40;20068;-76
2021/07/27 08:43:28;;;;;;;47.78;37.40;;;20.80;99.90;;;;;;3575754;40;20057;-75
2021/07/27 08:45:54;;;;;;;54.47;41.75;;;20.50;99.90;;;;;;3584297;40;20604;-76
2021/07/27 08:48:23;;;;;;;50.92;41.00;;;20.40;99.90;;;;;;3584176;40;20112;-75
2021/07/27 08:50:50;;;;;;;53.83;41.05;;;20.40;99.90;;;;;;3583076;40;20059;-73
2021/07/27 08:53:15;;;;;;;51.67;40.72;;;20.40;99.90;;;;;;3583966;40;20084;-73
2021/07/27 08:55:41;;;;;;;51.50;39.47;;;20.50;99.90;;;;;;3583845;40;20102;-76
2021/07/27 08:58:07;;;;;;;51.92;39.25;;;21.00;99.90;;;;;;3584377;40;20425;-75
2021/07/27 09:00:33;;;;;;;47.53;37.78;;;20.80;99.90;;;;;;3583713;40;20398;-77
2021/07/27 09:03:13;;;;;;;46.15;37.53;;;20.70;99.90;;;;;;3586798;40;20055;-77
2021/07/27 09:05:39;;;;;;;38.33;31.95;;;20.80;99.90;;;;;;3579016;40;20088;-72
2021/07/27 09:08:08;;;;;;;47.38;34.92;;;20.70;99.90;;;;;;3584224;40;20064;-73
2021/07/27 09:10:35;;;;;;;36.70;32.25;;;20.90;99.90;;;;;;3582839;40;20453;-73
2021/07/27 09:13:12;;;;;;;42.33;32.50;;;21.20;99.90;;;;;;3583446;40;20052;-73
2021/07/27 09:15:45;;;;;;;35.42;31.63;;;21.50;99.90;;;;;;3583916;40;20068;-71
2021/07/27 09:18:13;;;;;;;38.30;32.92;;;21.70;99.90;;;;;;3584095;40;20082;-72
2021/07/27 09:20:40;;;;;;;45.30;36.45;;;21.50;99.90;;;;;;3583209;40;20061;-72
2021/07/27 09:23:12;;;;;;;44.00;37.50;;;21.80;99.90;;;;;;3584457;40;20056;-72
2021/07/27 09:25:44;;;;;;;45.28;38.30;;;22.10;99.90;;;;;;3583051;40;20190;-73
2021/07/27 09:28:10;;;;;;;45.95;37.50;;;22.10;99.90;;;;;;3573741;40;20406;-73
2021/07/27 09:30:38;;;;;;;42.30;35.85;;;21.60;99.90;;;;;;3583198;40;20071;-72
2021/07/27 09:33:05;;;;;;;40.40;34.58;;;22.10;99.90;;;;;;3573310;40;20059;-73
2021/07/27 09:35:31;;;;;;;36.25;31.05;;;22.30;99.90;;;;;;3583901;40;20093;-72
2021/07/27 09:38:10;;;;;;;35.30;31.35;;;23.20;99.90;;;;;;3583648;40;20052;-73
2021/07/27 09:40:56;;;;;;;37.63;30.35;;;23.00;99.90;;;;;;3583299;40;20060;-73
2021/07/27 09:43:24;;;;;;;36.67;32.67;;;22.70;99.90;;;;;;3583288;40;20064;-72
2021/07/27 09:45:52;;;;;;;35.67;31.33;;;23.10;99.90;;;;;;3582942;40;20067;-72
2021/07/27 09:48:20;;;;;;;38.45;31.00;;;23.10;99.90;;;;;;3583185;40;20063;-74
2021/07/27 09:50:51;;;;;;;38.33;30.83;;;23.00;99.90;;;;;;3583169;40;20060;-73
2021/07/27 09:53:17;;;;;;;36.80;30.45;;;22.50;99.90;;;;;;3583611;40;20303;-73
2021/07/27 09:55:43;;;;;;;34.60;29.88;;;22.80;99.90;;;;;;3583271;40;20496;-73
2021/07/27 09:58:10;;;;;;;33.80;28.83;;;23.50;99.90;;;;;;3574023;40;20060;-73
2021/07/27 10:00:50;;;;;;;32.72;29.25;;;23.60;99.90;;;;;;3582780;40;20052;-72
2021/07/27 10:03:27;;;;;;;37.33;29.92;;;23.70;99.90;;;;;;3583417;40;20420;-73
2021/07/27 10:05:54;;;;;;;37.17;30.13;;;23.50;99.90;;;;;;3583364;40;20060;-73
2021/07/27 10:08:28;;;;;;;32.95;27.20;;;22.60;99.90;;;;;;3583695;40;20064;-72
2021/07/27 10:11:09;;;;;;;31.80;26.58;;;22.70;99.90;;;;;;3573343;40;20579;-71
2021/07/27 10:13:36;;;;;;;31.77;26.83;;;22.10;99.90;;;;;;3583628;40;20045;-71
2021/07/27 10:16:03;;;;;;;32.20;25.95;;;22.20;99.90;;;;;;3581803;40;20079;-75
2021/07/27 10:18:35;;;;;;;33.83;27.30;;;22.30;99.90;;;;;;3583235;40;20052;-75
2021/07/27 10:21:28;;;;;;;32.17;28.75;;;22.20;99.90;;;;;;3582918;40;20048;-75
2021/07/27 10:23:57;;;;;;;31.83;27.52;;;22.50;99.90;;;;;;3580213;40;20088;-74
2021/07/27 10:26:32;;;;;;;30.67;26.83;;;22.20;99.90;;;;;;3581023;40;20032;-75
2021/07/27 10:28:58;;;;;;;33.28;29.77;;;21.70;99.90;;;;;;3582225;40;20056;-73
2021/07/27 10:31:38;;;;;;;34.67;30.90;;;21.50;99.90;;;;;;3581160;40;20130;-72
2021/07/27 10:34:06;;;;;;;32.47;29.10;;;20.90;99.90;;;;;;3584239;40;20056;-72
2021/07/27 10:36:35;;;;;;;35.95;32.13;;;21.20;99.90;;;;;;3582333;40;20060;-74
2021/07/27 10:39:12;;;;;;;33.53;29.95;;;20.50;99.90;;;;;;3583235;40;20056;-74
2021/07/27 10:41:41;;;;;;;32.80;29.33;;;21.00;99.90;;;;;;3584954;40;20068;-74
2021/07/27 10:44:31;;;;;;;37.28;31.42;;;21.10;99.90;;;;;;3586057;40;20060;-73
2021/07/27 10:46:57;;;;;;;39.22;29.80;;;21.10;99.90;;;;;;3585166;40;20129;-73
2021/07/27 10:49:25;;;;;;;34.55;30.55;;;21.00;99.90;;;;;;3585471;40;20162;-73
2021/07/27 10:51:58;;;;;;;31.70;28.30;;;21.00;99.90;;;;;;3584630;40;20056;-73
2021/07/27 10:54:28;;;;;;;32.45;28.88;;;20.70;99.90;;;;;;3584721;40;20068;-74
2021/07/27 10:57:02;;;;;;;29.15;25.00;;;21.00;99.90;;;;;;3574976;40;20420;-75
2021/07/27 10:59:34;;;;;;;29.15;25.52;;;21.30;99.90;;;;;;3584131;40;20062;-71
2021/07/27 11:02:02;;;;;;;31.48;28.17;;;20.90;99.90;;;;;;3585133;40;20052;-73
2021/07/27 11:04:29;;;;;;;34.45;29.25;;;20.80;99.90;;;;;;3584462;40;20052;-73
2021/07/27 11:07:08;;;;;;;30.30;26.08;;;20.90;99.90;;;;;;3584194;40;20523;-75
2021/07/27 11:09:44;;;;;;;29.85;25.10;;;21.10;99.90;;;;;;3575059;40;20055;-76
2021/07/27 11:12:10;;;;;;;27.30;23.90;;;21.50;99.90;;;;;;3584554;40;20052;-74
2021/07/27 11:14:36;;;;;;;26.40;23.58;;;21.80;99.90;;;;;;3584609;40;20078;-73
2021/07/27 11:17:02;;;;;;;26.23;23.17;;;21.60;99.90;;;;;;3585221;40;20060;-75
2021/07/27 11:19:29;;;;;;;25.92;22.05;;;21.80;99.90;;;;;;3585562;40;20265;-74
2021/07/27 11:21:56;;;;;;;25.27;22.10;;;22.40;99.90;;;;;;3584904;40;20060;-75
2021/07/27 11:24:23;;;;;;;30.38;25.85;;;22.10;99.90;;;;;;3584719;40;20085;-73
2021/07/27 11:26:51;;;;;;;24.45;21.95;;;21.80;99.90;;;;;;3583363;40;20394;-74
2021/07/27 11:29:18;;;;;;;25.23;22.20;;;21.60;99.90;;;;;;3584424;40;20279;-74
2021/07/27 11:31:45;;;;;;;25.33;22.55;;;22.10;99.90;;;;;;3584984;40;20060;-75
2021/07/27 11:34:11;;;;;;;23.27;20.83;;;21.60;99.90;;;;;;3584514;40;20088;-73
2021/07/27 11:36:37;;;;;;;23.65;20.30;;;22.10;99.90;;;;;;3584115;40;20233;-73
2021/07/27 11:39:07;;;;;;;22.08;19.83;;;22.80;99.90;;;;;;3584657;40;20175;-76
2021/07/27 11:41:33;;;;;;;24.52;21.95;;;22.50;99.90;;;;;;3575091;40;20232;-75
2021/07/27 11:43:58;;;;;;;21.73;19.38;;;22.60;99.90;;;;;;3584703;40;20734;-75
2021/07/27 11:46:38;;;;;;;28.90;22.90;;;22.90;99.90;;;;;;3584526;40;20307;-74
2021/07/27 11:49:08;;;;;;;23.50;21.00;;;22.00;99.90;;;;;;3583963;40;20056;-74
2021/07/27 11:51:34;;;;;;;23.67;21.23;;;22.20;99.90;;;;;;3583966;40;20060;-76
2021/07/27 11:54:00;;;;;;;29.70;25.67;;;22.50;99.90;;;;;;3584695;40;20052;-73
2021/07/27 11:56:27;;;;;;;27.00;23.38;;;22.30;99.90;;;;;;3584188;40;20045;-76
2021/07/27 11:59:04;;;;;;;30.77;26.15;;;22.20;99.90;;;;;;3574473;40;20064;-73
2021/07/27 12:01:40;;;;;;;28.90;25.20;;;22.00;99.90;;;;;;3582748;40;20132;-74
2021/07/27 12:04:07;;;;;;;28.05;24.48;;;22.20;99.90;;;;;;3583581;40;20133;-73
2021/07/27 12:06:33;;;;;;;27.48;24.58;;;22.10;99.90;;;;;;3582129;40;20040;-74
2021/07/27 12:09:00;;;;;;;26.20;22.45;;;22.40;99.90;;;;;;3583901;40;20084;-72
2021/07/27 12:11:26;;;;;;;25.42;21.35;;;22.40;99.90;;;;;;3583250;40;20052;-74
2021/07/27 12:13:51;;;;;;;28.85;25.88;;;23.20;99.90;;;;;;3584085;40;20054;-74
2021/07/27 12:16:17;;;;;;;33.50;28.63;;;22.90;99.90;;;;;;3584171;40;20040;-74
2021/07/27 12:18:42;;;;;;;34.95;28.58;;;22.90;99.90;;;;;;3584067;40;20396;-73
2021/07/27 12:21:08;;;;;;;35.67;31.65;;;22.80;99.90;;;;;;3583760;40;20141;-74
2021/07/27 12:23:34;;;;;;;32.95;29.58;;;22.80;99.90;;;;;;3584310;40;20145;-74
2021/07/27 12:26:05;;;;;;;40.33;33.03;;;23.30;99.90;;;;;;3582811;40;20053;-73
2021/07/27 12:28:32;;;;;;;34.42;31.05;;;23.00;99.90;;;;;;3574151;40;20064;-74
2021/07/27 12:30:57;;;;;;;35.60;30.95;;;22.70;99.90;;;;;;3574345;40;20097;-74
2021/07/27 12:33:23;;;;;;;31.85;28.40;;;22.70;99.90;;;;;;3583632;40;20060;-74
2021/07/27 12:35:48;;;;;;;33.25;29.17;;;22.10;99.90;;;;;;3573183;40;20075;-75
2021/07/27 12:38:14;;;;;;;34.78;31.10;;;22.10;99.90;;;;;;3580238;40;20421;-77
2021/07/27 12:40:40;;;;;;;34.85;30.85;;;21.70;99.90;;;;;;3574241;40;20048;-76
2021/07/27 12:43:05;;;;;;;29.58;26.48;;;21.90;99.90;;;;;;3583824;40;20384;-76
2021/07/27 12:45:32;;;;;;;26.77;24.00;;;22.30;99.90;;;;;;3584078;40;20085;-76
2021/07/27 12:47:59;;;;;;;26.65;23.83;;;23.00;99.90;;;;;;3584387;40;20060;-76
2021/07/27 12:50:25;;;;;;;27.67;22.80;;;22.90;99.90;;;;;;3584409;40;20059;-76
2021/07/27 12:52:51;;;;;;;25.63;22.17;;;23.20;99.90;;;;;;3583650;40;20052;-76
2021/07/27 12:55:16;;;;;;;24.48;21.88;;;23.00;99.90;;;;;;3576943;40;20056;-76
2021/07/27 12:57:42;;;;;;;26.67;23.92;;;22.50;99.90;;;;;;3583628;40;20060;-76
2021/07/27 13:00:08;;;;;;;32.03;26.73;;;22.30;99.90;;;;;;3583800;40;20425;-76
2021/07/27 13:02:34;;;;;;;30.70;26.88;;;22.20;99.90;;;;;;3583498;40;20055;-76
2021/07/27 13:05:00;;;;;;;26.48;23.80;;;22.10;99.90;;;;;;3583855;40;20052;-73
2021/07/27 13:07:26;;;;;;;27.63;24.70;;;22.10;99.90;;;;;;3582877;40;20075;-75
2021/07/27 13:09:51;;;;;;;27.45;24.58;;;22.10;99.90;;;;;;3586714;40;20049;-74
2021/07/27 13:12:17;;;;;;;29.52;26.35;;;22.10;99.90;;;;;;3584308;40;20312;-74
2021/07/27 13:14:43;;;;;;;29.58;25.63;;;22.10;99.90;;;;;;3584109;40;20064;-75
2021/07/27 13:17:12;;;;;;;28.08;24.70;;;22.50;99.90;;;;;;3584723;40;20056;-76
2021/07/27 13:19:38;;;;;;;26.90;22.55;;;22.60;99.90;;;;;;3582416;40;20044;-75
2021/07/27 13:22:05;;;;;;;29.85;23.83;;;23.40;99.90;;;;;;3584216;40;20398;-75
2021/07/27 13:24:34;;;;;;;26.55;23.20;;;23.30;99.90;;;;;;3583624;40;20088;-76
2021/07/27 13:27:00;;;;;;;25.98;21.33;;;23.70;99.90;;;;;;3578495;40;20053;-77
2021/07/27 13:29:26;;;;;;;23.42;20.92;;;23.30;99.90;;;;;;3579081;40;20080;-76
2021/07/27 13:31:52;;;;;;;26.27;22.02;;;23.30;99.90;;;;;;3584438;40;20329;-73
2021/07/27 13:34:22;;;;;;;28.90;21.70;;;23.00;99.90;;;;;;3584146;40;20059;-77
2021/07/27 13:36:48;;;;;;;24.63;22.08;;;23.00;99.90;;;;;;3584014;40;20074;-74
2021/07/27 13:39:13;;;;;;;32.83;25.35;;;23.20;99.90;;;;;;3583702;40;20036;-76
2021/07/27 13:41:39;;;;;;;28.85;25.83;;;23.00;99.90;;;;;;3583795;40;20065;-75
2021/07/27 13:44:05;;;;;;;29.00;25.70;;;22.50;99.90;;;;;;3583310;40;20060;-75
2021/07/27 13:46:32;;;;;;;28.88;25.77;;;22.30;99.90;;;;;;3578014;40;20075;-75
2021/07/27 13:48:58;;;;;;;29.23;23.77;;;22.40;99.90;;;;;;3584010;40;20052;-75
2021/07/27 13:51:23;;;;;;;27.17;23.25;;;22.30;99.90;;;;;;3582916;40;20084;-76
2021/07/27 13:53:50;;;;;;;27.83;24.45;;;22.10;99.90;;;;;;3581810;40;20056;-75
2021/07/27 13:56:15;;;;;;;26.80;23.83;;;22.40;99.90;;;;;;3582443;40;20051;-76
2021/07/27 13:58:41;;;;;;;32.67;24.90;;;22.30;99.90;;;;;;3583146;40;20052;-73
2021/07/27 14:01:07;;;;;;;27.50;24.45;;;22.10;99.90;;;;;;3583590;40;20057;-73
2021/07/27 14:03:33;;;;;;;33.63;25.77;;;22.20;99.90;;;;;;3583707;40;20339;-73
2021/07/27 14:05:59;;;;;;;31.05;24.35;;;22.20;99.90;;;;;;3583652;40;20056;-73
2021/07/27 14:08:25;;;;;;;28.67;25.42;;;22.20;99.90;;;;;;3583195;40;20194;-74
2021/07/27 14:10:50;;;;;;;29.58;23.98;;;22.20;99.90;;;;;;3582796;40;20413;-74
2021/07/27 14:13:16;;;;;;;29.83;24.40;;;22.10;99.90;;;;;;3583356;40;20074;-74
2021/07/27 14:15:42;;;;;;;29.05;24.23;;;21.90;99.90;;;;;;3583832;40;20048;-73
2021/07/27 14:18:08;;;;;;;27.63;20.73;;;22.20;99.90;;;;;;3584946;40;20133;-74
2021/07/27 14:20:34;;;;;;;26.08;19.98;;;22.20;99.90;;;;;;3584420;40;20044;-73
2021/07/27 14:22:59;;;;;;;24.02;17.50;;;22.10;99.90;;;;;;3584900;40;20047;-73
2021/07/27 14:25:27;;;;;;;22.67;17.05;;;22.10;99.90;;;;;;3573997;40;20052;-73
2021/07/27 14:27:55;;;;;;;18.55;16.33;;;22.30;99.90;;;;;;3583893;40;20063;-74
2021/07/27 14:30:21;;;;;;;19.10;16.88;;;22.20;99.90;;;;;;3580836;40;20779;-74
2021/07/27 14:32:46;;;;;;;20.45;16.25;;;22.30;99.90;;;;;;3584936;40;20568;-76
2021/07/27 14:35:12;;;;;;;18.33;15.90;;;22.40;99.90;;;;;;3584679;40;20048;-75
2021/07/27 14:37:38;;;;;;;20.13;16.15;;;22.40;99.90;;;;;;3575695;40;20068;-76
2021/07/27 14:40:04;;;;;;;17.92;16.02;;;22.00;99.90;;;;;;3587718;40;20390;-75
2021/07/27 14:42:30;;;;;;;17.13;14.80;;;21.90;99.90;;;;;;3585668;40;20057;-75
2021/07/27 14:44:56;;;;;;;16.52;14.73;;;22.10;99.90;;;;;;3584942;40;20053;-74
2021/07/27 14:47:21;;;;;;;21.45;13.70;;;22.30;99.90;;;;;;3585330;40;20163;-75
2021/07/27 14:49:47;;;;;;;15.80;12.30;;;22.70;99.90;;;;;;3583674;40;20507;-76
2021/07/27 14:52:12;;;;;;;15.68;12.98;;;22.80;99.90;;;;;;3584970;40;20314;-77
2021/07/27 14:54:38;;;;;;;15.90;13.38;;;22.70;99.90;;;;;;3583512;40;20056;-77
2021/07/27 14:57:04;;;;;;;14.73;12.50;;;23.00;99.90;;;;;;3584700;40;20040;-78
2021/07/27 14:59:29;;;;;;;14.63;12.63;;;22.90;99.90;;;;;;3585394;40;20076;-76
2021/07/27 15:01:55;;;;;;;14.65;13.13;;;22.70;99.90;;;;;;3582899;40;20048;-76
2021/07/27 15:04:21;;;;;;;16.20;14.45;;;22.60;99.90;;;;;;3584477;40;20064;-77
2021/07/27 15:06:47;;;;;;;13.68;11.63;;;22.70;99.90;;;;;;3584871;40;20157;-74
2021/07/27 15:09:13;;;;;;;16.55;12.60;;;22.70;99.90;;;;;;3584094;40;20057;-75
2021/07/27 15:11:40;;;;;;;12.98;11.52;;;22.80;99.90;;;;;;3584591;40;20118;-74
2021/07/27 15:14:06;;;;;;;15.02;13.23;;;22.80;99.90;;;;;;3584596;40;20053;-75
2021/07/27 15:16:32;;;;;;;14.68;13.20;;;22.70;99.90;;;;;;3584999;40;20044;-76
2021/07/27 15:18:59;;;;;;;14.57;13.27;;;22.20;99.90;;;;;;3584428;40;20059;-75
2021/07/27 15:21:24;;;;;;;12.20;11.02;;;22.50;99.90;;;;;;3584603;40;20053;-73
2021/07/27 15:23:50;;;;;;;18.15;15.98;;;23.00;99.90;;;;;;3583379;40;20129;-72
2021/07/27 15:26:16;;;;;;;15.68;14.00;;;23.80;99.90;;;;;;3580908;40;20096;-73
2021/07/27 15:28:42;;;;;;;12.98;11.70;;;23.90;99.90;;;;;;3583856;40;20090;-74
2021/07/27 15:31:08;;;;;;;14.07;12.63;;;24.20;99.90;;;;;;3584640;40;20044;-74
2021/07/27 15:33:34;;;;;;;14.88;13.32;;;23.30;99.90;;;;;;3575263;40;20056;-73
2021/07/27 15:36:00;;;;;;;13.20;11.50;;;22.70;99.90;;;;;;3583871;40;20134;-74
2021/07/27 15:38:25;;;;;;;18.45;13.05;;;23.60;99.90;;;;;;3583845;40;20048;-74
2021/07/27 15:40:51;;;;;;;13.05;11.43;;;23.00;99.90;;;;;;3584754;40;20052;-77
2021/07/27 15:43:17;;;;;;;11.98;10.52;;;22.40;99.90;;;;;;3584931;40;20044;-74
2021/07/27 15:45:42;;;;;;;11.95;10.75;;;22.30;99.90;;;;;;3585289;40;20044;-73
2021/07/27 15:48:10;;;;;;;15.70;11.60;;;22.10;99.90;;;;;;3584313;40;20059;-76
2021/07/27 15:50:35;;;;;;;17.05;12.00;;;22.20;99.90;;;;;;3575309;40;20064;-73
2021/07/27 15:53:01;;;;;;;14.65;11.23;;;22.20;99.90;;;;;;3583505;40;20170;-74
2021/07/27 15:55:27;;;;;;;11.55;9.57;;;22.30;99.90;;;;;;3584506;40;20064;-74
2021/07/27 15:57:54;;;;;;;15.18;10.98;;;22.20;99.90;;;;;;3584029;40;20309;-72
2021/07/27 16:00:20;;;;;;;14.32;11.90;;;22.50;99.90;;;;;;3573264;40;20111;-74
2021/07/27 16:02:46;;;;;;;17.10;13.23;;;22.20;99.90;;;;;;3580683;40;20366;-75
2021/07/27 16:05:12;;;;;;;14.70;12.90;;;22.00;99.90;;;;;;3583580;40;20048;-74
2021/07/27 16:07:39;;;;;;;14.88;13.23;;;22.00;99.90;;;;;;3583810;40;20777;-75
2021/07/27 16:10:06;;;;;;;14.75;12.43;;;21.70;99.90;;;;;;3584122;40;20425;-74
2021/07/27 16:12:32;;;;;;;16.10;11.95;;;21.90;99.90;;;;;;3584401;40;20048;-73
2021/07/27 16:14:58;;;;;;;15.70;12.38;;;21.90;99.90;;;;;;3584071;40;20048;-73
2021/07/27 16:17:25;;;;;;;14.90;12.20;;;21.90;99.90;;;;;;3583988;40;20365;-74
2021/07/27 16:19:50;;;;;;;14.60;11.18;;;21.90;99.90;;;;;;3583733;40;20073;-75
2021/07/27 16:22:16;;;;;;;14.85;12.15;;;21.70;99.90;;;;;;3583768;40;20073;-74
2021/07/27 16:24:42;;;;;;;15.05;11.38;;;21.60;99.90;;;;;;3579783;40;20385;-74
2021/07/27 16:27:07;;;;;;;14.57;8.27;;;21.40;99.90;;;;;;3584598;40;20043;-73
2021/07/27 16:29:33;;;;;;;12.35;9.13;;;22.00;99.90;;;;;;3584115;40;20365;-73
2021/07/27 16:31:58;;;;;;;11.00;8.50;;;22.30;99.90;;;;;;3573856;40;20061;-73
2021/07/27 16:34:24;;;;;;;10.15;7.85;;;22.10;99.90;;;;;;3584602;40;20068;-73
2021/07/27 16:36:50;;;;;;;12.98;8.43;;;21.70;99.90;;;;;;3584141;40;20346;-74
2021/07/27 16:39:16;;;;;;;12.07;7.35;;;21.90;99.90;;;;;;3583131;40;20060;-74
2021/07/27 16:41:41;;;;;;;9.23;7.50;;;21.80;99.90;;;;;;3583944;40;20060;-72
2021/07/27 16:44:07;;;;;;;12.10;8.02;;;21.60;99.90;;;;;;3583413;40;20048;-74
2021/07/27 16:46:35;;;;;;;15.07;8.23;;;21.50;99.90;;;;;;3583863;40;20055;-73
2021/07/27 16:49:04;;;;;;;12.80;7.88;;;21.40;99.90;;;;;;3584487;40;20052;-74
2021/07/27 16:51:29;;;;;;;14.95;9.32;;;21.50;99.90;;;;;;3584732;40;20063;-73
2021/07/27 16:53:55;;;;;;;15.35;10.63;;;21.60;99.90;;;;;;3584850;40;20052;-73
2021/07/27 16:56:24;;;;;;;11.10;8.27;;;21.70;99.90;;;;;;3584289;40;20056;-75
2021/07/27 16:58:50;;;;;;;14.35;8.27;;;21.90;99.90;;;;;;3581574;40;20048;-75
2021/07/27 17:01:16;;;;;;;11.68;8.10;;;21.70;99.90;;;;;;3581972;40;20040;-73
2021/07/27 17:03:41;;;;;;;10.75;6.78;;;21.60;99.90;;;;;;3575437;40;20052;-73
2021/07/27 17:06:07;;;;;;;11.57;5.45;;;21.80;99.90;;;;;;3584173;40;20050;-74
2021/07/27 17:08:34;;;;;;;7.28;4.70;;;22.20;99.90;;;;;;3583799;40;20100;-75
2021/07/27 17:11:00;;;;;;;5.63;4.13;;;22.00;99.90;;;;;;3584383;40;20075;-74
2021/07/27 17:13:25;;;;;;;8.25;4.35;;;22.50;99.90;;;;;;3584296;40;20055;-74
2021/07/27 17:15:51;;;;;;;7.28;4.93;;;22.30;99.90;;;;;;3583645;40;20040;-74
2021/07/27 17:18:16;;;;;;;6.60;5.05;;;22.00;99.90;;;;;;3584022;40;20452;-75
2021/07/27 17:20:43;;;;;;;10.15;4.32;;;21.80;99.90;;;;;;3584001;40;20048;-72
2021/07/27 17:23:09;;;;;;;6.63;4.82;;;21.70;99.90;;;;;;3583980;40;20326;-74
2021/07/27 17:25:34;;;;;;;11.10;5.40;;;21.70;99.90;;;;;;3583802;40;20133;-75
2021/07/27 17:28:00;;;;;;;6.30;4.20;;;21.80;99.90;;;;;;3584126;40;20062;-72
2021/07/27 17:30:30;;;;;;;8.88;4.90;;;22.00;99.90;;;;;;3574562;40;20394;-73
2021/07/27 17:32:57;;;;;;;13.93;9.55;;;21.80;99.90;;;;;;3574213;40;20053;-72
2021/07/27 17:35:22;;;;;;;10.93;8.05;;;21.50;99.90;;;;;;3575504;40;20337;-73
2021/07/27 17:37:48;;;;;;;16.60;8.93;;;21.40;99.90;;;;;;3577748;40;20084;-76
2021/07/27 17:40:14;;;;;;;12.43;8.30;;;21.20;99.90;;;;;;3582971;40;20356;-77
2021/07/27 17:42:40;;;;;;;10.15;8.27;;;20.90;99.90;;;;;;3583466;40;20087;-75
2021/07/27 17:45:07;;;;;;;15.68;8.25;;;20.90;99.90;;;;;;3583738;40;20041;-76
2021/07/27 17:47:33;;;;;;;12.82;8.75;;;21.00;99.90;;;;;;3583700;40;20055;-74
2021/07/27 17:50:00;;;;;;;12.30;8.20;;;21.00;99.90;;;;;;3573595;40;20137;-75
2021/07/27 17:52:26;;;;;;;13.88;8.30;;;21.10;99.90;;;;;;3584263;40;20109;-74
2021/07/27 17:54:52;;;;;;;10.10;8.32;;;21.00;99.90;;;;;;3582927;40;20059;-75
2021/07/27 17:57:17;;;;;;;9.80;7.90;;;20.90;99.90;;;;;;3584126;40;20081;-74
2021/07/27 17:59:46;;;;;;;14.32;7.55;;;20.90;99.90;;;;;;3582390;40;20062;-75
2021/07/27 18:02:14;;;;;;;10.48;7.55;;;20.90;99.90;;;;;;3584500;40;20048;-74
2021/07/27 18:04:40;;;;;;;9.45;7.40;;;20.80;99.90;;;;;;3583561;40;20068;-73
2021/07/27 18:07:07;;;;;;;11.00;7.35;;;20.80;99.90;;;;;;3584070;40;20063;-75
2021/07/27 18:09:34;;;;;;;12.25;7.35;;;20.90;99.90;;;;;;3583582;40;20060;-74
2021/07/27 18:12:00;;;;;;;10.15;7.07;;;21.00;99.90;;;;;;3577112;40;20055;-74
2021/07/27 18:14:26;;;;;;;10.77;7.45;;;21.00;99.90;;;;;;3583678;40;20093;-74
2021/07/27 18:16:52;;;;;;;17.42;7.07;;;20.90;99.90;;;;;;3574107;40;20171;-74
2021/07/27 18:19:18;;;;;;;9.77;6.55;;;20.90;99.90;;;;;;3581108;40;20447;-73
2021/07/27 18:21:43;;;;;;;10.70;6.80;;;20.90;99.90;;;;;;3583024;40;20052;-74